sensor_id;sensor_type;location;lat;lon;timestamp;P1;durP1;ratioP1;P2;durP2;ratioP2
19566;SDS011;9930;49.240;8.548;2023-06-14T00:01:08;3.40;;;3.10;;
19566;SDS011;9930;49.240;8.548;2023-06-14T00:03:34;6.30;;;3.47;;
19566;SDS011;9930;49.240;8.548;2023-06-14T00:06:00;3.63;;;3.33;;
19566;SDS011;9930;49.240;8.548;2023-06-14T00:08:30;3.42;;;3.10;;
19566;SDS011;9930;49.240;8.548;2023-06-14T00:10:56;5.32;;;3.25;;
19566;SDS011;9930;49.240;8.548;2023-06-14T00:13:21;3.53;;;3.22;;
19566;SDS011;9930;49.240;8.548;2023-06-14T00:15:50;3.33;;;3.10;;
19566;SDS011;9930;49.240;8.548;2023-06-14T00:18:23;4.10;;;3.50;;
19566;SDS011;9930;49.240;8.548;2023-06-14T00:20:52;3.88;;;3.53;;
19566;SDS011;9930;49.240;8.548;2023-06-14T00:23:20;3.47;;;3.20;;
19566;SDS011;9930;49.240;8.548;2023-06-14T00:25:46;3.80;;;3.50;;
19566;SDS011;9930;49.240;8.548;2023-06-14T00:28:13;3.40;;;3.10;;
19566;SDS011;9930;49.240;8.548;2023-06-14T00:30:41;3.70;;;3.40;;
19566;SDS011;9930;49.240;8.548;2023-06-14T00:33:09;3.20;;;2.97;;
19566;SDS011;9930;49.240;8.548;2023-06-14T00:35:34;3.60;;;3.30;;
19566;SDS011;9930;49.240;8.548;2023-06-14T00:38:02;3.38;;;3.10;;
19566;SDS011;9930;49.240;8.548;2023-06-14T00:40:28;3.90;;;3.60;;
19566;SDS011;9930;49.240;8.548;2023-06-14T00:42:54;3.65;;;3.40;;
19566;SDS011;9930;49.240;8.548;2023-06-14T00:45:22;3.60;;;3.30;;
19566;SDS011;9930;49.240;8.548;2023-06-14T00:47:48;3.65;;;3.35;;
19566;SDS011;9930;49.240;8.548;2023-06-14T00:50:20;4.03;;;3.70;;
19566;SDS011;9930;49.240;8.548;2023-06-14T00:52:52;3.75;;;3.45;;
19566;SDS011;9930;49.240;8.548;2023-06-14T00:55:17;4.80;;;3.60;;
19566;SDS011;9930;49.240;8.548;2023-06-14T00:57:45;5.03;;;3.65;;
19566;SDS011;9930;49.240;8.548;2023-06-14T01:00:11;3.58;;;3.28;;
19566;SDS011;9930;49.240;8.548;2023-06-14T01:02:38;3.75;;;3.45;;
19566;SDS011;9930;49.240;8.548;2023-06-14T01:05:06;3.95;;;3.47;;
19566;SDS011;9930;49.240;8.548;2023-06-14T01:10:36;3.72;;;3.42;;
19566;SDS011;9930;49.240;8.548;2023-06-14T01:13:46;3.58;;;3.28;;
19566;SDS011;9930;49.240;8.548;2023-06-14T01:16:28;3.53;;;3.17;;
19566;SDS011;9930;49.240;8.548;2023-06-14T01:18:57;4.97;;;3.65;;
19566;SDS011;9930;49.240;8.548;2023-06-14T01:21:24;3.47;;;3.22;;
19566;SDS011;9930;49.240;8.548;2023-06-14T01:23:53;4.05;;;3.20;;
19566;SDS011;9930;49.240;8.548;2023-06-14T01:26:21;4.00;;;3.60;;
19566;SDS011;9930;49.240;8.548;2023-06-14T01:28:51;4.32;;;3.38;;
19566;SDS011;9930;49.240;8.548;2023-06-14T01:31:23;3.72;;;3.42;;
19566;SDS011;9930;49.240;8.548;2023-06-14T01:33:50;3.72;;;3.42;;
19566;SDS011;9930;49.240;8.548;2023-06-14T01:36:20;3.75;;;3.45;;
19566;SDS011;9930;49.240;8.548;2023-06-14T01:38:48;4.20;;;3.80;;
19566;SDS011;9930;49.240;8.548;2023-06-14T01:41:21;5.32;;;3.60;;
19566;SDS011;9930;49.240;8.548;2023-06-14T01:43:48;3.92;;;3.63;;
19566;SDS011;9930;49.240;8.548;2023-06-14T01:46:20;3.88;;;3.58;;
19566;SDS011;9930;49.240;8.548;2023-06-14T01:48:48;3.90;;;3.60;;
19566;SDS011;9930;49.240;8.548;2023-06-14T01:51:15;4.10;;;3.72;;
19566;SDS011;9930;49.240;8.548;2023-06-14T01:53:40;3.88;;;3.58;;
19566;SDS011;9930;49.240;8.548;2023-06-14T01:56:07;3.70;;;3.30;;
19566;SDS011;9930;49.240;8.548;2023-06-14T01:58:33;3.85;;;3.55;;
19566;SDS011;9930;49.240;8.548;2023-06-14T02:01:04;4.85;;;3.65;;
19566;SDS011;9930;49.240;8.548;2023-06-14T02:03:33;4.22;;;3.88;;
19566;SDS011;9930;49.240;8.548;2023-06-14T02:05:59;4.32;;;3.58;;
19566;SDS011;9930;49.240;8.548;2023-06-14T02:08:25;3.72;;;3.42;;
19566;SDS011;9930;49.240;8.548;2023-06-14T02:10:51;3.80;;;3.50;;
19566;SDS011;9930;49.240;8.548;2023-06-14T02:13:17;3.92;;;3.63;;
19566;SDS011;9930;49.240;8.548;2023-06-14T02:15:43;3.83;;;3.53;;
19566;SDS011;9930;49.240;8.548;2023-06-14T02:18:11;4.28;;;3.90;;
19566;SDS011;9930;49.240;8.548;2023-06-14T02:20:37;4.18;;;3.85;;
19566;SDS011;9930;49.240;8.548;2023-06-14T02:23:05;5.22;;;3.90;;
19566;SDS011;9930;49.240;8.548;2023-06-14T02:25:33;4.30;;;4.00;;
19566;SDS011;9930;49.240;8.548;2023-06-14T02:28:01;4.50;;;4.10;;
19566;SDS011;9930;49.240;8.548;2023-06-14T02:30:29;4.40;;;4.00;;
19566;SDS011;9930;49.240;8.548;2023-06-14T02:32:56;4.47;;;3.80;;
19566;SDS011;9930;49.240;8.548;2023-06-14T02:35:21;4.00;;;3.70;;
19566;SDS011;9930;49.240;8.548;2023-06-14T02:37:51;4.22;;;3.70;;
19566;SDS011;9930;49.240;8.548;2023-06-14T02:40:24;3.95;;;3.65;;
19566;SDS011;9930;49.240;8.548;2023-06-14T02:42:51;4.10;;;3.70;;
19566;SDS011;9930;49.240;8.548;2023-06-14T02:45:18;4.07;;;3.42;;
19566;SDS011;9930;49.240;8.548;2023-06-14T02:47:46;3.72;;;3.42;;
19566;SDS011;9930;49.240;8.548;2023-06-14T02:50:12;4.15;;;3.83;;
19566;SDS011;9930;49.240;8.548;2023-06-14T02:52:37;4.05;;;3.75;;
19566;SDS011;9930;49.240;8.548;2023-06-14T02:55:09;3.95;;;3.60;;
19566;SDS011;9930;49.240;8.548;2023-06-14T02:57:35;4.20;;;3.80;;
19566;SDS011;9930;49.240;8.548;2023-06-14T03:00:00;4.10;;;3.80;;
19566;SDS011;9930;49.240;8.548;2023-06-14T03:02:26;3.92;;;3.60;;
19566;SDS011;9930;49.240;8.548;2023-06-14T03:04:52;3.90;;;3.60;;
19566;SDS011;9930;49.240;8.548;2023-06-14T03:07:17;4.00;;;3.60;;
19566;SDS011;9930;49.240;8.548;2023-06-14T03:09:45;3.90;;;3.60;;
19566;SDS011;9930;49.240;8.548;2023-06-14T03:12:11;4.32;;;4.03;;
19566;SDS011;9930;49.240;8.548;2023-06-14T03:14:37;4.40;;;4.00;;
19566;SDS011;9930;49.240;8.548;2023-06-14T03:17:03;4.57;;;4.20;;
19566;SDS011;9930;49.240;8.548;2023-06-14T03:19:29;4.10;;;3.70;;
19566;SDS011;9930;49.240;8.548;2023-06-14T03:21:55;4.15;;;3.85;;
19566;SDS011;9930;49.240;8.548;2023-06-14T03:24:26;4.00;;;3.70;;
19566;SDS011;9930;49.240;8.548;2023-06-14T03:26:56;3.55;;;3.30;;
19566;SDS011;9930;49.240;8.548;2023-06-14T03:29:22;4.22;;;3.83;;
19566;SDS011;9930;49.240;8.548;2023-06-14T03:32:01;4.63;;;4.18;;
19566;SDS011;9930;49.240;8.548;2023-06-14T03:34:30;4.45;;;3.97;;
19566;SDS011;9930;49.240;8.548;2023-06-14T03:36:56;4.70;;;4.20;;
19566;SDS011;9930;49.240;8.548;2023-06-14T03:39:24;4.88;;;4.38;;
19566;SDS011;9930;49.240;8.548;2023-06-14T03:41:50;6.03;;;4.13;;
19566;SDS011;9930;49.240;8.548;2023-06-14T03:44:18;5.03;;;4.25;;
19566;SDS011;9930;49.240;8.548;2023-06-14T03:46:48;4.53;;;4.13;;
19566;SDS011;9930;49.240;8.548;2023-06-14T03:49:15;4.22;;;3.90;;
19566;SDS011;9930;49.240;8.548;2023-06-14T03:51:42;4.47;;;4.18;;
19566;SDS011;9930;49.240;8.548;2023-06-14T03:54:15;4.50;;;4.10;;
19566;SDS011;9930;49.240;8.548;2023-06-14T03:56:41;4.38;;;3.97;;
19566;SDS011;9930;49.240;8.548;2023-06-14T03:59:06;4.45;;;4.05;;
19566;SDS011;9930;49.240;8.548;2023-06-14T04:01:32;4.40;;;4.05;;
19566;SDS011;9930;49.240;8.548;2023-06-14T04:04:00;4.47;;;4.07;;
19566;SDS011;9930;49.240;8.548;2023-06-14T04:06:26;5.05;;;4.63;;
19566;SDS011;9930;49.240;8.548;2023-06-14T04:08:57;4.53;;;4.13;;
19566;SDS011;9930;49.240;8.548;2023-06-14T04:11:28;4.15;;;3.85;;
19566;SDS011;9930;49.240;8.548;2023-06-14T04:13:54;4.47;;;4.18;;
19566;SDS011;9930;49.240;8.548;2023-06-14T04:16:21;4.18;;;3.85;;
19566;SDS011;9930;49.240;8.548;2023-06-14T04:18:48;4.47;;;4.07;;
19566;SDS011;9930;49.240;8.548;2023-06-14T04:21:21;4.13;;;3.83;;
19566;SDS011;9930;49.240;8.548;2023-06-14T04:23:48;4.60;;;3.97;;
19566;SDS011;9930;49.240;8.548;2023-06-14T04:26:17;4.80;;;4.40;;
19566;SDS011;9930;49.240;8.548;2023-06-14T04:28:48;4.30;;;3.90;;
19566;SDS011;9930;49.240;8.548;2023-06-14T04:31:16;5.38;;;4.28;;
19566;SDS011;9930;49.240;8.548;2023-06-14T04:33:43;5.68;;;4.40;;
19566;SDS011;9930;49.240;8.548;2023-06-14T04:36:12;6.20;;;4.78;;
19566;SDS011;9930;49.240;8.548;2023-06-14T04:38:45;5.25;;;4.60;;
19566;SDS011;9930;49.240;8.548;2023-06-14T04:41:14;6.20;;;5.57;;
19566;SDS011;9930;49.240;8.548;2023-06-14T04:43:41;6.47;;;5.68;;
19566;SDS011;9930;49.240;8.548;2023-06-14T04:46:13;7.95;;;5.10;;
19566;SDS011;9930;49.240;8.548;2023-06-14T04:48:42;5.15;;;4.75;;
19566;SDS011;9930;49.240;8.548;2023-06-14T04:51:12;5.22;;;4.75;;
19566;SDS011;9930;49.240;8.548;2023-06-14T04:53:41;6.22;;;5.63;;
19566;SDS011;9930;49.240;8.548;2023-06-14T04:56:09;5.43;;;4.93;;
19566;SDS011;9930;49.240;8.548;2023-06-14T04:58:36;5.28;;;4.80;;
19566;SDS011;9930;49.240;8.548;2023-06-14T05:01:03;5.35;;;4.95;;
19566;SDS011;9930;49.240;8.548;2023-06-14T05:03:29;6.05;;;4.82;;
19566;SDS011;9930;49.240;8.548;2023-06-14T05:05:55;5.38;;;4.70;;
19566;SDS011;9930;49.240;8.548;2023-06-14T05:08:21;5.13;;;4.65;;
19566;SDS011;9930;49.240;8.548;2023-06-14T05:10:50;5.03;;;4.47;;
19566;SDS011;9930;49.240;8.548;2023-06-14T05:13:20;7.40;;;4.90;;
19566;SDS011;9930;49.240;8.548;2023-06-14T05:15:48;5.20;;;4.68;;
19566;SDS011;9930;49.240;8.548;2023-06-14T05:18:16;5.30;;;4.80;;
19566;SDS011;9930;49.240;8.548;2023-06-14T05:20:44;7.35;;;4.95;;
19566;SDS011;9930;49.240;8.548;2023-06-14T05:23:11;5.35;;;4.85;;
19566;SDS011;9930;49.240;8.548;2023-06-14T05:25:40;5.93;;;4.63;;
19566;SDS011;9930;49.240;8.548;2023-06-14T05:28:10;5.40;;;4.90;;
19566;SDS011;9930;49.240;8.548;2023-06-14T05:30:38;4.88;;;4.47;;
19566;SDS011;9930;49.240;8.548;2023-06-14T05:33:05;4.97;;;4.57;;
19566;SDS011;9930;49.240;8.548;2023-06-14T05:35:33;4.65;;;4.28;;
19566;SDS011;9930;49.240;8.548;2023-06-14T05:37:59;4.60;;;4.30;;
19566;SDS011;9930;49.240;8.548;2023-06-14T05:40:25;4.28;;;3.97;;
19566;SDS011;9930;49.240;8.548;2023-06-14T05:42:53;5.22;;;4.20;;
19566;SDS011;9930;49.240;8.548;2023-06-14T05:45:18;4.57;;;4.18;;
19566;SDS011;9930;49.240;8.548;2023-06-14T05:47:45;4.72;;;4.30;;
19566;SDS011;9930;49.240;8.548;2023-06-14T05:50:13;4.97;;;4.47;;
19566;SDS011;9930;49.240;8.548;2023-06-14T05:52:41;6.50;;;3.88;;
19566;SDS011;9930;49.240;8.548;2023-06-14T05:55:09;4.00;;;3.70;;
19566;SDS011;9930;49.240;8.548;2023-06-14T05:57:37;4.30;;;4.00;;
19566;SDS011;9930;49.240;8.548;2023-06-14T06:00:06;3.97;;;3.40;;
19566;SDS011;9930;49.240;8.548;2023-06-14T06:02:39;4.85;;;3.88;;
19566;SDS011;9930;49.240;8.548;2023-06-14T06:05:11;5.15;;;4.07;;
19566;SDS011;9930;49.240;8.548;2023-06-14T06:07:42;3.83;;;3.53;;
19566;SDS011;9930;49.240;8.548;2023-06-14T06:10:11;3.92;;;3.50;;
19566;SDS011;9930;49.240;8.548;2023-06-14T06:12:37;3.75;;;3.50;;
19566;SDS011;9930;49.240;8.548;2023-06-14T06:15:03;3.33;;;3.13;;
19566;SDS011;9930;49.240;8.548;2023-06-14T06:17:29;3.58;;;3.28;;
19566;SDS011;9930;49.240;8.548;2023-06-14T06:20:00;3.78;;;3.47;;
19566;SDS011;9930;49.240;8.548;2023-06-14T06:22:25;3.47;;;3.17;;
19566;SDS011;9930;49.240;8.548;2023-06-14T06:24:51;3.78;;;3.40;;
19566;SDS011;9930;49.240;8.548;2023-06-14T06:27:18;3.92;;;3.50;;
19566;SDS011;9930;49.240;8.548;2023-06-14T06:29:47;4.15;;;3.58;;
19566;SDS011;9930;49.240;8.548;2023-06-14T06:32:14;3.88;;;3.45;;
19566;SDS011;9930;49.240;8.548;2023-06-14T06:34:40;5.28;;;3.40;;
19566;SDS011;9930;49.240;8.548;2023-06-14T06:37:06;4.05;;;3.20;;
19566;SDS011;9930;49.240;8.548;2023-06-14T06:39:32;3.35;;;3.15;;
19566;SDS011;9930;49.240;8.548;2023-06-14T06:41:58;3.63;;;3.33;;
19566;SDS011;9930;49.240;8.548;2023-06-14T06:44:26;4.50;;;3.80;;
19566;SDS011;9930;49.240;8.548;2023-06-14T06:46:52;3.75;;;3.45;;
19566;SDS011;9930;49.240;8.548;2023-06-14T06:49:18;4.00;;;3.60;;
19566;SDS011;9930;49.240;8.548;2023-06-14T06:51:53;3.92;;;3.63;;
19566;SDS011;9930;49.240;8.548;2023-06-14T06:54:32;3.90;;;3.60;;
19566;SDS011;9930;49.240;8.548;2023-06-14T06:56:59;4.10;;;3.70;;
19566;SDS011;9930;49.240;8.548;2023-06-14T06:59:25;3.58;;;3.25;;
19566;SDS011;9930;49.240;8.548;2023-06-14T07:01:53;3.95;;;3.53;;
19566;SDS011;9930;49.240;8.548;2023-06-14T07:04:21;3.92;;;3.60;;
19566;SDS011;9930;49.240;8.548;2023-06-14T07:06:51;4.07;;;3.78;;
19566;SDS011;9930;49.240;8.548;2023-06-14T07:09:19;3.95;;;3.55;;
19566;SDS011;9930;49.240;8.548;2023-06-14T07:11:46;3.63;;;3.33;;
19566;SDS011;9930;49.240;8.548;2023-06-14T07:14:14;3.45;;;3.20;;
19566;SDS011;9930;49.240;8.548;2023-06-14T07:16:40;3.58;;;3.28;;
19566;SDS011;9930;49.240;8.548;2023-06-14T07:19:06;4.07;;;3.70;;
19566;SDS011;9930;49.240;8.548;2023-06-14T07:21:32;5.25;;;3.65;;
19566;SDS011;9930;49.240;8.548;2023-06-14T07:24:03;4.35;;;3.42;;
19566;SDS011;9930;49.240;8.548;2023-06-14T07:26:31;4.10;;;3.50;;
19566;SDS011;9930;49.240;8.548;2023-06-14T07:29:00;3.72;;;3.42;;
19566;SDS011;9930;49.240;8.548;2023-06-14T07:31:31;3.90;;;3.13;;
19566;SDS011;9930;49.240;8.548;2023-06-14T07:34:00;3.72;;;3.40;;
19566;SDS011;9930;49.240;8.548;2023-06-14T07:36:28;3.95;;;3.55;;
19566;SDS011;9930;49.240;8.548;2023-06-14T07:38:53;3.95;;;3.60;;
19566;SDS011;9930;49.240;8.548;2023-06-14T07:41:19;3.38;;;3.17;;
19566;SDS011;9930;49.240;8.548;2023-06-14T07:43:50;3.30;;;3.10;;
19566;SDS011;9930;49.240;8.548;2023-06-14T07:46:18;3.35;;;3.05;;
19566;SDS011;9930;49.240;8.548;2023-06-14T07:48:45;4.05;;;3.70;;
19566;SDS011;9930;49.240;8.548;2023-06-14T07:51:11;3.70;;;3.40;;
19566;SDS011;9930;49.240;8.548;2023-06-14T07:53:37;3.60;;;3.30;;
19566;SDS011;9930;49.240;8.548;2023-06-14T07:56:02;3.90;;;3.20;;
19566;SDS011;9930;49.240;8.548;2023-06-14T07:58:28;3.30;;;3.10;;
19566;SDS011;9930;49.240;8.548;2023-06-14T08:00:54;3.92;;;3.03;;
19566;SDS011;9930;49.240;8.548;2023-06-14T08:03:20;5.18;;;3.38;;
19566;SDS011;9930;49.240;8.548;2023-06-14T08:05:51;4.07;;;3.45;;
19566;SDS011;9930;49.240;8.548;2023-06-14T08:08:17;3.63;;;3.33;;
19566;SDS011;9930;49.240;8.548;2023-06-14T08:10:43;4.28;;;3.40;;
19566;SDS011;9930;49.240;8.548;2023-06-14T08:13:09;3.40;;;3.15;;
19566;SDS011;9930;49.240;8.548;2023-06-14T08:15:35;3.60;;;3.30;;
19566;SDS011;9930;49.240;8.548;2023-06-14T08:18:01;3.53;;;3.22;;
19566;SDS011;9930;49.240;8.548;2023-06-14T08:20:27;3.28;;;3.08;;
19566;SDS011;9930;49.240;8.548;2023-06-14T08:22:56;3.58;;;3.28;;
19566;SDS011;9930;49.240;8.548;2023-06-14T08:25:23;3.38;;;3.08;;
19566;SDS011;9930;49.240;8.548;2023-06-14T08:27:52;3.30;;;3.00;;
19566;SDS011;9930;49.240;8.548;2023-06-14T08:30:20;3.60;;;3.30;;
19566;SDS011;9930;49.240;8.548;2023-06-14T08:32:53;3.42;;;3.13;;
19566;SDS011;9930;49.240;8.548;2023-06-14T08:35:21;3.17;;;2.92;;
19566;SDS011;9930;49.240;8.548;2023-06-14T08:37:47;3.25;;;2.95;;
19566;SDS011;9930;49.240;8.548;2023-06-14T08:40:22;3.13;;;2.92;;
19566;SDS011;9930;49.240;8.548;2023-06-14T08:42:54;3.58;;;3.15;;
19566;SDS011;9930;49.240;8.548;2023-06-14T08:45:21;3.20;;;2.90;;
19566;SDS011;9930;49.240;8.548;2023-06-14T08:47:50;3.40;;;3.10;;
19566;SDS011;9930;49.240;8.548;2023-06-14T08:50:23;3.97;;;3.58;;
19566;SDS011;9930;49.240;8.548;2023-06-14T08:52:55;3.20;;;3.00;;
19566;SDS011;9930;49.240;8.548;2023-06-14T08:55:25;3.30;;;3.00;;
19566;SDS011;9930;49.240;8.548;2023-06-14T08:57:57;3.40;;;3.15;;
19566;SDS011;9930;49.240;8.548;2023-06-14T09:00:26;3.65;;;3.35;;
19566;SDS011;9930;49.240;8.548;2023-06-14T09:02:53;3.75;;;3.45;;
19566;SDS011;9930;49.240;8.548;2023-06-14T09:05:23;3.42;;;3.15;;
19566;SDS011;9930;49.240;8.548;2023-06-14T09:07:50;3.38;;;3.08;;
19566;SDS011;9930;49.240;8.548;2023-06-14T09:10:17;3.30;;;3.10;;
19566;SDS011;9930;49.240;8.548;2023-06-14T09:12:43;4.55;;;3.80;;
19566;SDS011;9930;49.240;8.548;2023-06-14T09:15:09;3.22;;;3.00;;
19566;SDS011;9930;49.240;8.548;2023-06-14T09:17:39;3.72;;;3.28;;
19566;SDS011;9930;49.240;8.548;2023-06-14T09:20:06;3.65;;;3.38;;
19566;SDS011;9930;49.240;8.548;2023-06-14T09:22:43;4.35;;;3.50;;
19566;SDS011;9930;49.240;8.548;2023-06-14T09:25:14;4.03;;;3.60;;
19566;SDS011;9930;49.240;8.548;2023-06-14T09:27:40;3.05;;;2.85;;
19566;SDS011;9930;49.240;8.548;2023-06-14T09:30:09;3.17;;;2.88;;
19566;SDS011;9930;49.240;8.548;2023-06-14T09:32:36;4.30;;;3.63;;
19566;SDS011;9930;49.240;8.548;2023-06-14T09:35:05;3.70;;;3.40;;
19566;SDS011;9930;49.240;8.548;2023-06-14T09:37:32;4.90;;;3.58;;
19566;SDS011;9930;49.240;8.548;2023-06-14T09:39:59;4.32;;;3.35;;
19566;SDS011;9930;49.240;8.548;2023-06-14T09:42:28;3.90;;;3.47;;
19566;SDS011;9930;49.240;8.548;2023-06-14T09:44:55;3.30;;;3.05;;
19566;SDS011;9930;49.240;8.548;2023-06-14T09:47:23;3.75;;;3.45;;
19566;SDS011;9930;49.240;8.548;2023-06-14T09:49:51;3.28;;;2.97;;
19566;SDS011;9930;49.240;8.548;2023-06-14T09:52:20;3.40;;;3.20;;
19566;SDS011;9930;49.240;8.548;2023-06-14T09:54:49;3.58;;;3.28;;
19566;SDS011;9930;49.240;8.548;2023-06-14T09:57:16;3.60;;;3.30;;
19566;SDS011;9930;49.240;8.548;2023-06-14T09:59:47;3.70;;;3.40;;
19566;SDS011;9930;49.240;8.548;2023-06-14T10:02:28;3.47;;;3.17;;
19566;SDS011;9930;49.240;8.548;2023-06-14T10:05:06;3.47;;;3.17;;
19566;SDS011;9930;49.240;8.548;2023-06-14T10:07:40;3.63;;;3.33;;
19566;SDS011;9930;49.240;8.548;2023-06-14T10:10:16;3.90;;;3.50;;
19566;SDS011;9930;49.240;8.548;2023-06-14T10:12:42;3.78;;;3.05;;
19566;SDS011;9930;49.240;8.548;2023-06-14T10:15:08;4.40;;;3.20;;
19566;SDS011;9930;49.240;8.548;2023-06-14T10:17:54;3.10;;;2.90;;
19566;SDS011;9930;49.240;8.548;2023-06-14T10:23:18;3.20;;;2.88;;
19566;SDS011;9930;49.240;8.548;2023-06-14T10:25:50;3.40;;;3.05;;
19566;SDS011;9930;49.240;8.548;2023-06-14T10:28:24;3.75;;;3.40;;
19566;SDS011;9930;49.240;8.548;2023-06-14T10:31:06;3.22;;;3.00;;
19566;SDS011;9930;49.240;8.548;2023-06-14T10:33:48;3.75;;;2.95;;
19566;SDS011;9930;49.240;8.548;2023-06-14T10:36:26;3.10;;;2.90;;
19566;SDS011;9930;49.240;8.548;2023-06-14T10:38:58;4.35;;;2.88;;
19566;SDS011;9930;49.240;8.548;2023-06-14T10:41:32;4.47;;;3.33;;
19566;SDS011;9930;49.240;8.548;2023-06-14T10:46:40;3.35;;;3.05;;
19566;SDS011;9930;49.240;8.548;2023-06-14T10:49:11;3.35;;;3.05;;
19566;SDS011;9930;49.240;8.548;2023-06-14T10:51:42;3.25;;;2.95;;
19566;SDS011;9930;49.240;8.548;2023-06-14T10:54:15;3.40;;;3.10;;
19566;SDS011;9930;49.240;8.548;2023-06-14T10:56:51;3.72;;;3.42;;
19566;SDS011;9930;49.240;8.548;2023-06-14T10:59:19;3.13;;;2.92;;
19566;SDS011;9930;49.240;8.548;2023-06-14T11:04:49;3.50;;;3.20;;
19566;SDS011;9930;49.240;8.548;2023-06-14T11:13:03;3.20;;;2.90;;
19566;SDS011;9930;49.240;8.548;2023-06-14T11:15:29;2.83;;;2.63;;
19566;SDS011;9930;49.240;8.548;2023-06-14T11:17:56;3.47;;;3.17;;
19566;SDS011;9930;49.240;8.548;2023-06-14T11:20:26;3.03;;;2.75;;
19566;SDS011;9930;49.240;8.548;2023-06-14T11:22:54;4.25;;;2.92;;
19566;SDS011;9930;49.240;8.548;2023-06-14T11:25:20;3.00;;;2.63;;
19566;SDS011;9930;49.240;8.548;2023-06-14T11:27:49;3.05;;;2.75;;
19566;SDS011;9930;49.240;8.548;2023-06-14T11:30:17;2.75;;;2.55;;
19566;SDS011;9930;49.240;8.548;2023-06-14T11:32:49;2.88;;;2.67;;
19566;SDS011;9930;49.240;8.548;2023-06-14T11:35:18;3.45;;;2.45;;
19566;SDS011;9930;49.240;8.548;2023-06-14T11:37:48;3.03;;;2.78;;
19566;SDS011;9930;49.240;8.548;2023-06-14T11:40:18;2.67;;;2.47;;
19566;SDS011;9930;49.240;8.548;2023-06-14T11:42:48;2.60;;;2.40;;
19566;SDS011;9930;49.240;8.548;2023-06-14T11:45:15;2.63;;;2.33;;
19566;SDS011;9930;49.240;8.548;2023-06-14T11:47:41;3.13;;;2.38;;
19566;SDS011;9930;49.240;8.548;2023-06-14T11:50:07;2.63;;;2.42;;
19566;SDS011;9930;49.240;8.548;2023-06-14T11:52:35;3.20;;;2.78;;
19566;SDS011;9930;49.240;8.548;2023-06-14T11:55:03;3.13;;;2.92;;
19566;SDS011;9930;49.240;8.548;2023-06-14T11:57:34;2.85;;;2.63;;
19566;SDS011;9930;49.240;8.548;2023-06-14T12:00:04;2.88;;;2.55;;
19566;SDS011;9930;49.240;8.548;2023-06-14T12:02:40;2.83;;;2.63;;
19566;SDS011;9930;49.240;8.548;2023-06-14T12:05:06;2.92;;;2.67;;
19566;SDS011;9930;49.240;8.548;2023-06-14T12:07:37;2.47;;;2.30;;
19566;SDS011;9930;49.240;8.548;2023-06-14T12:10:05;3.72;;;2.65;;
19566;SDS011;9930;49.240;8.548;2023-06-14T12:12:37;3.20;;;3.00;;
19566;SDS011;9930;49.240;8.548;2023-06-14T12:15:07;3.03;;;2.72;;
19566;SDS011;9930;49.240;8.548;2023-06-14T12:17:37;2.90;;;2.70;;
19566;SDS011;9930;49.240;8.548;2023-06-14T12:20:10;2.67;;;2.47;;
19566;SDS011;9930;49.240;8.548;2023-06-14T12:22:50;3.25;;;3.05;;
19566;SDS011;9930;49.240;8.548;2023-06-14T12:25:23;2.70;;;2.50;;
19566;SDS011;9930;49.240;8.548;2023-06-14T12:28:07;2.92;;;2.63;;
19566;SDS011;9930;49.240;8.548;2023-06-14T12:30:37;2.70;;;2.50;;
19566;SDS011;9930;49.240;8.548;2023-06-14T12:33:04;3.00;;;2.80;;
19566;SDS011;9930;49.240;8.548;2023-06-14T12:35:31;3.00;;;2.80;;
19566;SDS011;9930;49.240;8.548;2023-06-14T12:37:59;3.63;;;3.40;;
19566;SDS011;9930;49.240;8.548;2023-06-14T12:40:28;2.88;;;2.67;;
19566;SDS011;9930;49.240;8.548;2023-06-14T12:42:56;2.80;;;2.60;;
19566;SDS011;9930;49.240;8.548;2023-06-14T12:45:27;2.78;;;2.58;;
19566;SDS011;9930;49.240;8.548;2023-06-14T12:47:53;2.90;;;2.70;;
19566;SDS011;9930;49.240;8.548;2023-06-14T12:50:20;2.83;;;2.63;;
19566;SDS011;9930;49.240;8.548;2023-06-14T12:52:46;2.67;;;2.47;;
19566;SDS011;9930;49.240;8.548;2023-06-14T12:55:12;3.28;;;3.00;;
19566;SDS011;9930;49.240;8.548;2023-06-14T12:57:39;3.25;;;2.95;;
19566;SDS011;9930;49.240;8.548;2023-06-14T13:00:05;2.88;;;2.67;;
19566;SDS011;9930;49.240;8.548;2023-06-14T13:02:34;2.80;;;2.60;;
19566;SDS011;9930;49.240;8.548;2023-06-14T13:05:00;3.08;;;2.78;;
19566;SDS011;9930;49.240;8.548;2023-06-14T13:07:28;2.60;;;2.40;;
19566;SDS011;9930;49.240;8.548;2023-06-14T13:09:56;2.70;;;2.50;;
19566;SDS011;9930;49.240;8.548;2023-06-14T13:12:22;2.72;;;2.53;;
19566;SDS011;9930;49.240;8.548;2023-06-14T13:14:48;3.20;;;2.90;;
19566;SDS011;9930;49.240;8.548;2023-06-14T13:17:15;2.85;;;2.65;;
19566;SDS011;9930;49.240;8.548;2023-06-14T13:19:41;3.10;;;2.90;;
19566;SDS011;9930;49.240;8.548;2023-06-14T13:22:09;2.50;;;2.33;;
19566;SDS011;9930;49.240;8.548;2023-06-14T13:24:35;2.80;;;2.60;;
19566;SDS011;9930;49.240;8.548;2023-06-14T13:27:01;3.05;;;2.75;;
19566;SDS011;9930;49.240;8.548;2023-06-14T13:29:30;3.13;;;2.70;;
19566;SDS011;9930;49.240;8.548;2023-06-14T13:32:00;2.63;;;2.42;;
19566;SDS011;9930;49.240;8.548;2023-06-14T13:34:27;2.80;;;2.60;;
19566;SDS011;9930;49.240;8.548;2023-06-14T13:36:55;3.10;;;2.80;;
19566;SDS011;9930;49.240;8.548;2023-06-14T13:39:27;3.70;;;2.55;;
19566;SDS011;9930;49.240;8.548;2023-06-14T13:41:55;2.90;;;2.60;;
19566;SDS011;9930;49.240;8.548;2023-06-14T13:44:23;2.95;;;2.75;;
19566;SDS011;9930;49.240;8.548;2023-06-14T13:46:51;2.88;;;2.60;;
19566;SDS011;9930;49.240;8.548;2023-06-14T13:49:17;3.35;;;2.75;;
19566;SDS011;9930;49.240;8.548;2023-06-14T13:51:45;2.60;;;2.40;;
19566;SDS011;9930;49.240;8.548;2023-06-14T13:54:14;2.95;;;2.75;;
19566;SDS011;9930;49.240;8.548;2023-06-14T13:56:45;3.00;;;2.75;;
19566;SDS011;9930;49.240;8.548;2023-06-14T13:59:13;3.00;;;2.80;;
19566;SDS011;9930;49.240;8.548;2023-06-14T14:01:39;3.13;;;2.90;;
19566;SDS011;9930;49.240;8.548;2023-06-14T14:04:05;3.20;;;2.60;;
19566;SDS011;9930;49.240;8.548;2023-06-14T14:06:31;3.22;;;2.90;;
19566;SDS011;9930;49.240;8.548;2023-06-14T14:08:58;4.88;;;2.70;;
19566;SDS011;9930;49.240;8.548;2023-06-14T14:11:24;2.75;;;2.55;;
19566;SDS011;9930;49.240;8.548;2023-06-14T14:13:58;3.05;;;2.75;;
19566;SDS011;9930;49.240;8.548;2023-06-14T14:16:26;2.75;;;2.55;;
19566;SDS011;9930;49.240;8.548;2023-06-14T14:18:52;2.67;;;2.47;;
19566;SDS011;9930;49.240;8.548;2023-06-14T14:21:22;2.95;;;2.72;;
19566;SDS011;9930;49.240;8.548;2023-06-14T14:23:48;3.08;;;2.88;;
19566;SDS011;9930;49.240;8.548;2023-06-14T14:26:14;3.75;;;2.65;;
19566;SDS011;9930;49.240;8.548;2023-06-14T14:28:41;2.67;;;2.47;;
19566;SDS011;9930;49.240;8.548;2023-06-14T14:31:06;3.55;;;3.25;;
19566;SDS011;9930;49.240;8.548;2023-06-14T14:33:32;2.90;;;2.70;;
19566;SDS011;9930;49.240;8.548;2023-06-14T14:36:00;2.83;;;2.63;;
19566;SDS011;9930;49.240;8.548;2023-06-14T14:38:28;2.70;;;2.50;;
19566;SDS011;9930;49.240;8.548;2023-06-14T14:40:54;3.10;;;2.80;;
19566;SDS011;9930;49.240;8.548;2023-06-14T14:43:22;2.95;;;2.75;;
19566;SDS011;9930;49.240;8.548;2023-06-14T14:45:48;3.05;;;2.65;;
19566;SDS011;9930;49.240;8.548;2023-06-14T14:48:14;3.08;;;2.88;;
19566;SDS011;9930;49.240;8.548;2023-06-14T14:50:44;3.03;;;2.80;;
19566;SDS011;9930;49.240;8.548;2023-06-14T14:53:09;2.58;;;2.38;;
19566;SDS011;9930;49.240;8.548;2023-06-14T14:55:35;3.17;;;2.97;;
19566;SDS011;9930;49.240;8.548;2023-06-14T14:58:02;2.92;;;2.72;;
19566;SDS011;9930;49.240;8.548;2023-06-14T15:00:33;3.50;;;3.20;;
19566;SDS011;9930;49.240;8.548;2023-06-14T15:03:00;3.10;;;2.88;;
19566;SDS011;9930;49.240;8.548;2023-06-14T15:05:25;3.20;;;2.90;;
19566;SDS011;9930;49.240;8.548;2023-06-14T15:07:51;3.00;;;2.70;;
19566;SDS011;9930;49.240;8.548;2023-06-14T15:10:20;2.80;;;2.60;;
19566;SDS011;9930;49.240;8.548;2023-06-14T15:12:47;2.95;;;2.60;;
19566;SDS011;9930;49.240;8.548;2023-06-14T15:15:15;2.80;;;2.60;;
19566;SDS011;9930;49.240;8.548;2023-06-14T15:17:43;3.80;;;2.70;;
19566;SDS011;9930;49.240;8.548;2023-06-14T15:20:09;2.90;;;2.70;;
19566;SDS011;9930;49.240;8.548;2023-06-14T15:22:37;2.97;;;2.67;;
19566;SDS011;9930;49.240;8.548;2023-06-14T15:25:03;2.72;;;2.38;;